Time;durP1;ratioP1;P1;durP2;ratioP2;P2;SDS_P1;SDS_P2;PMS_P1;PMS_P2;Temp;Humidity;BMP_temperature;BMP_pressure;BME280_temperature;BME280_humidity;BME280_pressure;Samples;Min_cycle;Max_cycle;Signal;HPM_P1;HPM_P2
2022/03/18 00:01:44;;;;;;;50.00;19.10;;;;;;;-0.04;48.60;104224.06;4957534;29;20031;-69
2022/03/18 00:04:09;;;;;;;51.80;15.00;;;;;;;-0.01;48.48;104224.06;4957837;28;20546;-69
2022/03/18 00:06:35;;;;;;;37.10;14.77;;;;;;;-0.13;48.84;104206.66;4957703;29;20505;-70
2022/03/18 00:09:00;;;;;;;29.67;12.83;;;;;;;-0.06;47.80;104223.22;4957684;28;20023;-70
2022/03/18 00:11:26;;;;;;;31.57;12.33;;;;;;;-0.03;48.85;104236.28;4957456;28;20038;-70
2022/03/18 00:13:51;;;;;;;22.13;8.87;;;;;;;-0.60;47.86;104146.69;4957432;28;20027;-71
2022/03/18 00:16:16;;;;;;;17.03;8.63;;;;;;;-0.05;48.36;104235.44;4959511;29;20462;-69
2022/03/18 00:18:42;;;;;;;24.67;8.73;;;;;;;-0.19;48.22;104205.84;4956809;29;20023;-68
2022/03/18 00:21:08;;;;;;;24.00;9.00;;;;;;;-0.21;48.40;104200.63;4957886;29;20110;-69
2022/03/18 00:23:33;;;;;;;25.53;8.17;;;;;;;-0.24;47.96;104202.38;4957489;28;20027;-70
2022/03/18 00:25:59;;;;;;;22.50;6.53;;;;;;;-0.20;48.25;104214.59;4957467;28;20019;-70
2022/03/18 00:28:24;;;;;;;14.33;6.67;;;;;;;-0.13;47.04;104230.25;4957356;28;20082;-69
2022/03/18 00:30:50;;;;;;;11.57;5.73;;;;;;;-0.16;47.43;104224.16;4957043;29;20054;-70
2022/03/18 00:33:22;;;;;;;15.03;6.40;;;;;;;-0.10;47.93;104235.47;4957467;28;20055;-68
2022/03/18 00:35:51;;;;;;;9.13;5.07;;;;;;;-0.29;47.84;104206.75;4957236;29;20071;-69
2022/03/18 00:38:17;;;;;;;11.40;5.23;;;;;;;-0.49;49.15;104173.72;4956695;28;20267;-70
2022/03/18 00:40:44;;;;;;;10.73;6.70;;;;;;;-0.15;48.04;104231.13;4955905;29;20478;-70
2022/03/18 00:43:10;;;;;;;11.23;5.30;;;;;;;-0.15;48.96;104233.75;4956802;28;20749;-70
2022/03/18 00:45:36;;;;;;;11.00;5.47;;;;;;;-0.23;46.98;104225.94;4955519;29;20826;-70
2022/03/18 00:53:31;;;;;;;13.60;5.70;;;;;;;-0.27;48.29;104221.63;4955327;29;20279;-70
2022/03/18 00:55:57;;;;;;;12.20;5.57;;;;;;;-0.28;47.88;104225.13;4957239;28;20436;-70
2022/03/18 00:58:22;;;;;;;19.00;6.83;;;;;;;-0.25;48.79;104234.69;4956545;28;20032;-69
2022/03/18 01:00:48;;;;;;;14.93;6.50;;;;;;;-0.27;46.55;104234.72;4955398;29;20038;-69
2022/03/18 01:03:15;;;;;;;20.10;7.33;;;;;;;-0.28;46.58;104227.72;4955400;29;20035;-68
2022/03/18 01:05:42;;;;;;;13.37;6.77;;;;;;;-0.30;46.35;104234.69;4956617;28;20435;-70
2022/03/18 01:08:08;;;;;;;17.33;6.40;;;;;;;-0.29;48.20;104231.19;4956528;28;20727;-69
2022/03/18 01:10:34;;;;;;;17.97;7.80;;;;;;;-0.29;47.76;104233.81;4955183;29;20801;-68
2022/03/18 01:13:00;;;;;;;13.27;6.37;;;;;;;-0.40;47.23;104214.69;4956580;28;20786;-71
2022/03/18 01:15:26;;;;;;;11.67;6.23;;;;;;;-0.35;47.19;104220.75;4956300;29;20385;-70
2022/03/18 01:17:51;;;;;;;14.13;5.67;;;;;;;-0.32;47.78;104237.31;4955265;29;20042;-70
2022/03/18 01:20:17;;;;;;;16.37;6.77;;;;;;;-0.45;47.74;104222.56;4955064;29;20459;-68
2022/03/18 01:22:42;;;;;;;9.63;5.00;;;;;;;-0.37;47.26;104231.25;4956020;28;20034;-69
2022/03/18 01:25:08;;;;;;;15.47;5.60;;;;;;;-0.42;47.78;104225.16;4956649;28;20035;-69
2022/03/18 01:27:34;;;;;;;11.03;5.17;;;;;;;-0.49;48.76;104207.75;4956177;28;20630;-68
2022/03/18 01:29:59;;;;;;;14.90;4.83;;;;;;;-0.52;49.18;104209.50;4955015;29;20023;-70
2022/03/18 01:32:25;;;;;;;10.67;5.90;;;;;;;-0.48;50.42;104219.09;4956159;28;20035;-69
2022/03/18 01:34:50;;;;;;;15.23;5.63;;;;;;;-0.46;49.76;104220.81;4956084;28;20143;-69
2022/03/18 01:37:16;;;;;;;14.20;5.70;;;;;;;-0.44;50.25;104226.91;4955988;29;20046;-69
2022/03/18 01:39:41;;;;;;;12.23;6.17;;;;;;;-0.44;50.57;104221.69;4956060;29;20145;-69
2022/03/18 01:42:07;;;;;;;19.47;7.73;;;;;;;-0.58;52.15;104207.75;4956262;28;20030;-68
2022/03/18 01:44:43;;;;;;;16.73;7.50;;;;;;;-0.56;51.28;104206.03;4956548;28;20027;-70
2022/03/18 01:47:10;;;;;;;16.63;7.97;;;;;;;-0.57;52.10;104219.16;4956387;28;20031;-69
2022/03/18 01:49:39;;;;;;;18.70;7.70;;;;;;;-0.62;52.69;104216.50;4955666;29;20259;-69
2022/03/18 01:52:07;;;;;;;21.77;7.57;;;;;;;-0.57;53.01;104233.09;4954893;29;20683;-70
2022/03/18 01:54:46;;;;;;;21.73;8.77;;;;;;;-0.65;52.16;104222.63;4955940;28;20646;-68
2022/03/18 01:57:12;;;;;;;;;;;;;;;-0.60;51.54;104229.59;4956743;28;20074;-68
2022/03/18 01:59:38;;;;;;;19.03;9.47;;;;;;;-0.66;53.84;104230.50;4955830;28;19933;-68
2022/03/18 02:02:04;;;;;;;20.30;8.97;;;;;;;-0.70;55.33;104224.41;4955624;28;20263;-69
2022/03/18 02:04:30;;;;;;;28.00;9.33;;;;;;;-0.86;54.88;104208.78;4955504;28;20471;-68
2022/03/18 02:06:56;;;;;;;23.43;7.97;;;;;;;-0.89;53.19;104206.13;4954326;29;20105;-69
2022/03/18 02:09:22;;;;;;;25.33;9.33;;;;;;;-0.80;53.56;104224.44;4955849;28;20035;-70
2022/03/18 02:11:48;;;;;;;27.03;11.33;;;;;;;-0.81;54.47;104226.19;4956118;28;20255;-69
2022/03/18 02:14:14;;;;;;;17.43;8.77;;;;;;;-0.88;54.78;104213.13;4955458;28;20862;-68
2022/03/18 02:16:40;;;;;;;23.10;8.27;;;;;;;-0.83;55.43;104227.09;4955073;28;20271;-70
2022/03/18 02:19:09;;;;;;;18.27;7.83;;;;;;;-0.94;54.45;104204.41;4955230;28;20426;-68
2022/03/18 02:21:38;;;;;;;24.10;8.13;;;;;;;-0.83;55.85;104227.09;4955637;28;20058;-68
2022/03/18 02:24:04;;;;;;;28.13;7.73;;;;;;;-0.93;55.03;104211.38;4955838;28;20030;-69
2022/03/18 02:26:29;;;;;;;24.73;6.87;;;;;;;-0.99;54.32;104198.31;4955570;28;20258;-70
2022/03/18 02:28:58;;;;;;;22.37;6.70;;;;;;;-0.86;55.29;104222.72;4955218;29;20118;-70
2022/03/18 02:31:29;;;;;;;16.13;6.88;;;;;;;-0.88;55.55;104218.34;4955274;28;20031;-71
2022/03/18 02:33:55;;;;;;;20.40;6.77;;;;;;;-1.01;56.08;104217.53;4954820;28;20039;-70
2022/03/18 02:36:20;;;;;;;27.03;7.67;;;;;;;-0.94;56.16;104222.72;4955090;28;20306;-68
2022/03/18 02:38:46;;;;;;;15.57;6.27;;;;;;;-0.97;56.26;104216.63;4955127;29;20132;-69
2022/03/18 02:41:12;;;;;;;25.17;7.07;;;;;;;-1.00;55.42;104220.13;4955122;29;20028;-69
2022/03/18 02:43:38;;;;;;;21.97;9.37;;;;;;;-1.16;57.11;104201.84;4954839;28;20035;-69
2022/03/18 02:46:05;;;;;;;16.63;7.83;;;;;;;-1.40;56.17;104161.81;4954710;28;20027;-70
2022/03/18 02:48:30;;;;;;;28.37;8.40;;;;;;;-1.12;57.24;104217.56;4954404;28;20285;-68
2022/03/18 02:50:56;;;;;;;25.27;8.67;;;;;;;-1.11;57.41;104221.91;4953108;29;20278;-68
2022/03/18 02:53:23;;;;;;;25.23;7.30;;;;;;;-1.16;56.08;104213.19;4955404;29;20031;-69
2022/03/18 02:55:49;;;;;;;18.23;7.17;;;;;;;-1.14;55.65;104219.31;4953432;29;20049;-69
2022/03/18 02:58:14;;;;;;;28.30;7.07;;;;;;;-1.15;56.09;104225.41;4954793;28;20759;-69
2022/03/18 03:00:40;;;;;;;25.17;7.90;;;;;;;-1.31;57.74;104200.16;4954545;29;20031;-68
2022/03/18 03:03:05;;;;;;;19.67;7.83;;;;;;;-1.40;57.18;104201.03;4953518;29;20403;-69
2022/03/18 03:08:15;;;;;;;18.70;9.23;;;;;;;-1.23;57.23;104221.03;4955670;29;20035;-70
2022/03/18 03:10:42;;;;;;;19.93;8.30;;;;;;;-1.29;56.12;104219.31;4954254;29;20838;-69
2022/03/18 03:13:10;;;;;;;24.33;8.33;;;;;;;-1.34;56.77;104197.53;4954413;28;20034;-69
2022/03/18 03:15:38;;;;;;;19.60;8.97;;;;;;;-1.49;55.76;104182.72;4954177;28;20278;-69
2022/03/18 03:18:04;;;;;;;20.37;9.10;;;;;;;-1.38;55.45;104212.38;4954572;28;20251;-69
2022/03/18 03:20:29;;;;;;;24.13;8.50;;;;;;;-1.47;55.25;104193.19;4954639;28;20250;-69
2022/03/18 03:22:55;;;;;;;15.90;8.53;;;;;;;-1.36;55.51;104220.19;4954799;28;20251;-70
2022/03/18 03:25:21;;;;;;;23.33;9.10;;;;;;;-1.47;55.58;104193.19;4958411;28;20050;-69
2022/03/18 03:27:47;;;;;;;22.33;8.87;;;;;;;-1.37;55.42;104218.47;4959941;28;20274;-69
2022/03/18 03:30:12;;;;;;;18.67;8.00;;;;;;;-1.53;55.21;104191.44;4955888;28;20467;-70
2022/03/18 03:32:38;;;;;;;21.20;8.33;;;;;;;-1.45;55.86;104207.13;4957878;28;20151;-70
2022/03/18 03:35:06;;;;;;;22.60;8.97;;;;;;;-1.44;56.01;104198.44;4957305;28;20410;-69
2022/03/18 03:37:32;;;;;;;22.10;9.10;;;;;;;-1.54;55.28;104183.59;4955966;28;20385;-69
2022/03/18 03:39:59;;;;;;;20.70;7.63;;;;;;;-1.39;56.07;104222.81;4954529;29;20275;-70
2022/03/18 03:42:25;;;;;;;24.03;9.83;;;;;;;-1.41;56.48;104211.50;4954626;28;20318;-70
2022/03/18 03:44:51;;;;;;;17.03;8.50;;;;;;;-1.63;56.03;104174.03;4955167;29;20143;-68
2022/03/18 03:47:17;;;;;;;19.37;7.63;;;;;;;-1.41;56.11;104208.88;4955197;28;20072;-69
2022/03/18 03:49:44;;;;;;;19.23;7.93;;;;;;;-1.49;55.96;104195.78;4954894;28;20038;-70
2022/03/18 03:52:11;;;;;;;17.43;8.97;;;;;;;-1.53;56.58;104194.06;4955613;28;20062;-70
2022/03/18 03:54:37;;;;;;;32.20;9.17;;;;;;;-1.48;55.80;104214.97;4952930;29;20687;-69
2022/03/18 03:57:07;;;;;;;16.97;7.60;;;;;;;-2.42;55.74;104067.78;4954665;28;20274;-70
2022/03/18 03:59:33;;;;;;;25.30;8.17;;;;;;;-1.68;56.17;104183.63;4953371;29;20350;-70
2022/03/18 04:01:59;;;;;;;25.77;7.47;;;;;;;-1.50;56.10;104211.47;4954316;28;20275;-70
2022/03/18 04:04:26;;;;;;;18.87;7.63;;;;;;;-1.64;56.16;104190.59;4953403;29;20102;-72
2022/03/18 04:06:52;;;;;;;43.70;8.70;;;;;;;-1.56;57.34;104202.78;4955549;28;20349;-69
2022/03/18 04:09:17;;;;;;;27.03;8.73;;;;;;;-1.67;56.69;104182.75;4958220;28;20762;-67
2022/03/18 04:11:43;;;;;;;20.20;8.90;;;;;;;-1.56;56.14;104186.22;4959755;29;20255;-64
2022/03/18 04:14:09;;;;;;;24.07;7.53;;;;;;;-1.40;57.08;104219.34;4954633;28;20031;-70
2022/03/18 04:16:35;;;;;;;18.83;8.33;;;;;;;-1.39;56.50;104218.47;4955067;28;20467;-63
2022/03/18 04:19:03;;;;;;;21.23;8.03;;;;;;;-1.41;56.78;104219.34;4954996;28;20031;-66
2022/03/18 04:21:29;;;;;;;22.40;8.20;;;;;;;-1.41;57.40;104222.81;4937593;29;20281;-62
2022/03/18 04:23:54;;;;;;;23.33;7.70;;;;;;;-1.46;57.10;104219.31;4953699;28;20263;-63
2022/03/18 04:26:20;;;;;;;28.97;9.47;;;;;;;-1.43;57.39;104219.34;4936181;29;20809;-66
2022/03/18 04:28:46;;;;;;;25.17;7.27;;;;;;;-1.40;57.45;104221.94;4953494;28;20107;-65
2022/03/18 04:31:12;;;;;;;28.70;9.03;;;;;;;-1.38;56.33;104224.56;4953458;28;20054;-69
2022/03/18 04:33:37;;;;;;;22.73;9.17;;;;;;;-1.41;56.16;104219.34;4952296;29;20392;-68
2022/03/18 04:36:03;;;;;;;23.37;7.10;;;;;;;-1.33;56.01;104225.44;4953237;28;20066;-64
2022/03/18 04:38:29;;;;;;;19.33;7.67;;;;;;;-1.30;56.85;104230.66;4953308;28;20023;-63
2022/03/18 04:40:54;;;;;;;27.60;7.90;;;;;;;-1.31;56.45;104227.16;4956053;28;20604;-66
2022/03/18 04:43:20;;;;;;;38.23;9.17;;;;;;;-1.37;56.36;104202.78;4956869;28;20019;-65
2022/03/18 04:45:45;;;;;;;29.40;9.23;;;;;;;-1.31;56.10;104214.09;4957300;29;20035;-65
2022/03/18 04:48:11;;;;;;;26.20;8.10;;;;;;;-1.20;55.89;104227.13;4957435;28;20031;-64
2022/03/18 04:50:36;;;;;;;29.17;7.03;;;;;;;-1.16;55.62;104228.00;4958419;28;20046;-66
2022/03/18 04:53:02;;;;;;;34.00;7.80;;;;;;;-1.18;55.11;104220.16;4956390;29;20122;-67
2022/03/18 04:55:28;;;;;;;36.73;10.67;;;;;;;-1.19;55.11;104213.19;4955052;29;20043;-65
2022/03/18 04:57:53;;;;;;;33.97;9.90;;;;;;;-1.04;54.86;104234.09;4954534;29;20042;-66
2022/03/18 05:00:20;;;;;;;44.73;9.80;;;;;;;-1.08;54.22;104221.03;4956386;28;20029;-68
2022/03/18 05:02:46;;;;;;;26.30;9.73;;;;;;;-1.01;54.77;104231.47;4956054;29;20360;-65
2022/03/18 05:05:11;;;;;;;29.47;8.77;;;;;;;-0.97;55.13;104240.19;4957334;28;20325;-66
2022/03/18 05:07:40;;;;;;;60.00;12.17;;;;;;;-1.01;54.32;104236.72;4956620;28;20030;-66
2022/03/18 05:10:08;;;;;;;39.45;9.07;;;;;;;-0.94;54.61;104240.19;4956360;28;20038;-67
2022/03/18 05:12:33;;;;;;;42.77;11.47;;;;;;;-0.89;53.91;104237.53;4956572;28;20035;-66
2022/03/18 05:14:59;;;;;;;35.03;10.47;;;;;;;-0.89;54.33;104232.31;4956304;28;20678;-67
2022/03/18 05:17:25;;;;;;;37.43;11.27;;;;;;;-0.96;55.35;104211.41;4955058;29;20026;-68
2022/03/18 05:19:50;;;;;;;34.33;10.50;;;;;;;-0.83;54.68;104227.97;4956272;28;20023;-66
2022/03/18 05:22:16;;;;;;;37.40;8.03;;;;;;;-0.71;53.09;104240.13;4956281;28;20435;-66
2022/03/18 05:24:42;;;;;;;40.73;8.53;;;;;;;-1.50;52.98;104106.91;4955977;28;20117;-66
2022/03/18 05:27:07;;;;;;;58.07;9.43;;;;;;;-0.67;52.39;104239.22;4956171;28;20036;-66
2022/03/18 05:29:34;;;;;;;42.60;11.33;;;;;;;-0.56;52.31;104247.94;4956056;28;20059;-66
2022/03/18 05:32:01;;;;;;;45.67;11.63;;;;;;;-0.46;53.48;104249.63;4955924;28;20385;-66
2022/03/18 05:34:27;;;;;;;35.33;11.00;;;;;;;-0.46;51.52;104239.16;4956032;28;20317;-67
2022/03/18 05:36:52;;;;;;;46.03;10.87;;;;;;;-0.40;51.41;104241.75;4956054;28;20694;-68
2022/03/18 05:39:18;;;;;;;34.87;8.07;;;;;;;-0.42;51.00;104230.41;4955939;28;20043;-68
2022/03/18 05:41:44;;;;;;;24.47;5.90;;;;;;;-0.38;50.67;104226.88;4955519;28;20035;-70
2022/03/18 05:44:10;;;;;;;33.27;7.43;;;;;;;-1.00;50.66;104114.63;4954068;28;20035;-66
2022/03/18 05:46:37;;;;;;;34.20;5.83;;;;;;;-0.13;50.38;104243.34;4956060;28;20062;-67
2022/03/18 05:49:03;;;;;;;27.73;7.13;;;;;;;-0.34;49.58;104189.31;4955603;28;20762;-65
2022/03/18 05:51:31;;;;;;;24.20;5.33;;;;;;;-0.03;48.58;104234.53;4954680;28;20277;-66
2022/03/18 05:53:56;;;;;;;21.80;5.20;;;;;;;0.12;48.31;104244.06;4954974;29;20629;-67
2022/03/18 05:59:08;;;;;;;17.50;6.20;;;;;;;0.16;47.86;104234.44;4954479;29;20447;-65
2022/03/18 06:01:38;;;;;;;20.83;5.17;;;;;;;0.22;47.10;104237.00;4955522;28;20259;-64
2022/03/18 06:04:04;;;;;;;14.53;4.97;;;;;;;0.33;46.77;104244.81;4955489;28;20749;-70
2022/03/18 06:06:30;;;;;;;22.77;5.63;;;;;;;0.41;46.86;104250.88;4938324;29;20262;-66
2022/03/18 06:11:49;;;;;;;14.87;5.23;;;;;;;0.10;46.63;104172.44;4954893;29;20030;-69
2022/03/18 06:14:18;;;;;;;22.67;6.47;;;;;;;0.61;46.62;104264.69;4955615;28;20691;-64
2022/03/18 06:16:45;;;;;;;20.60;5.27;;;;;;;0.70;46.01;104254.13;4956150;28;20270;-64
2022/03/18 06:19:11;;;;;;;23.10;6.37;;;;;;;0.71;46.13;104240.09;4954463;29;20274;-67
2022/03/18 06:21:37;;;;;;;23.43;6.23;;;;;;;0.79;46.04;104242.66;4956077;28;20270;-69
2022/03/18 06:24:02;;;;;;;28.83;6.83;;;;;;;0.90;46.31;104240.81;4954377;29;20278;-64
2022/03/18 06:26:30;;;;;;;39.27;8.07;;;;;;;0.93;45.93;104240.78;4956128;28;20027;-70
2022/03/18 06:28:56;;;;;;;20.70;7.00;;;;;;;0.98;45.67;104243.34;4951899;28;20522;-67
2022/03/18 06:31:21;;;;;;;25.93;6.57;;;;;;;0.87;45.23;104215.47;4936652;29;20079;-65
2022/03/18 06:33:47;;;;;;;25.50;6.13;;;;;;;1.00;46.14;104225.84;4947082;29;20031;-69
2022/03/18 06:36:14;;;;;;;24.77;7.77;;;;;;;1.10;46.04;104230.09;4938558;29;20023;-70
2022/03/18 06:38:39;;;;;;;33.20;8.50;;;;;;;1.17;45.80;104226.53;4955300;28;20055;-67
2022/03/18 06:41:05;;;;;;;38.30;7.47;;;;;;;1.23;45.22;104224.69;4955386;28;20259;-72
2022/03/18 06:43:35;;;;;;;35.70;6.83;;;;;;;1.30;44.99;104225.50;4955139;28;20050;-72
2022/03/18 06:46:02;;;;;;;27.13;7.03;;;;;;;1.48;44.92;104240.16;4960014;28;20754;-68
2022/03/18 06:48:28;;;;;;;50.13;8.97;;;;;;;1.50;45.45;104244.50;4959962;28;20267;-68
2022/03/18 06:50:54;;;;;;;31.07;7.70;;;;;;;1.52;45.16;104226.97;4969886;28;20741;-66
2022/03/18 06:53:20;;;;;;;27.83;8.27;;;;;;;1.67;44.74;104246.03;4973721;28;20270;-69
2022/03/18 06:55:46;;;;;;;23.87;7.00;;;;;;;1.70;45.00;104238.97;4975144;28;20297;-69
2022/03/18 06:58:12;;;;;;;41.03;9.33;;;;;;;1.63;44.91;104218.06;4974416;28;20041;-67
2022/03/18 07:00:41;;;;;;;39.60;10.33;;;;;;;1.77;44.44;104231.91;4973789;28;20038;-68
2022/03/18 07:03:06;;;;;;;51.50;11.93;;;;;;;1.83;44.35;104243.19;4974219;28;20267;-69
2022/03/18 07:05:32;;;;;;;50.37;10.20;;;;;;;1.81;43.86;104212.56;4940548;28;20092;-64
2022/03/18 07:07:58;;;;;;;43.60;11.07;;;;;;;2.02;43.73;104237.66;4973588;28;20114;-65
2022/03/18 07:10:24;;;;;;;29.80;9.67;;;;;;;2.05;43.82;104230.63;4955376;28;20433;-63
2022/03/18 07:12:49;;;;;;;41.47;10.30;;;;;;;2.12;43.84;104227.00;4959432;28;20462;-62
2022/03/18 07:15:15;;;;;;;58.03;11.47;;;;;;;1.94;43.99;104189.59;4964652;28;20451;-70
2022/03/18 07:17:58;;;;;;;43.00;10.87;;;;;;;2.17;43.45;104216.41;4961875;28;20118;-70
2022/03/18 07:20:36;;;;;;;45.40;10.60;;;;;;;2.46;43.13;104250.13;4953777;28;20023;-70
2022/03/18 07:23:22;;;;;;;34.30;11.50;;;;;;;2.44;43.31;104226.47;4962957;28;20270;-68
2022/03/18 07:25:48;;;;;;;26.67;10.30;;;;;;;2.57;43.92;104242.06;4965531;28;20755;-69
2022/03/18 07:28:16;;;;;;;40.47;10.87;;;;;;;2.61;43.04;104244.63;4954584;28;20271;-66
2022/03/18 07:30:44;;;;;;;49.58;12.45;;;;;;;2.64;42.44;104228.78;4953559;28;20349;-69
2022/03/18 07:33:10;;;;;;;57.90;12.37;;;;;;;2.73;43.29;104233.00;4962482;28;20031;-68
2022/03/18 07:35:37;;;;;;;29.03;9.67;;;;;;;2.84;42.63;104235.44;4965432;28;20283;-68
2022/03/18 07:38:05;;;;;;;32.60;11.03;;;;;;;2.87;42.71;104235.38;4964595;28;20262;-73
2022/03/18 07:40:31;;;;;;;39.97;12.93;;;;;;;2.92;41.86;104234.44;4964906;28;20256;-73
2022/03/18 07:42:58;;;;;;;38.87;10.27;;;;;;;3.02;42.67;104240.38;4962362;28;20261;-69
2022/03/18 07:45:49;;;;;;;49.37;11.73;;;;;;;3.10;41.83;104233.19;4965434;28;20301;-66
2022/03/18 07:48:14;;;;;;;30.83;10.43;;;;;;;3.13;41.68;104225.22;4962227;28;20277;-66
2022/03/18 07:50:43;;;;;;;49.67;10.83;;;;;;;3.22;42.04;104225.06;4963231;28;20050;-65
2022/03/18 07:53:09;;;;;;;60.67;18.75;;;;;;;3.36;41.35;104246.72;4961146;28;20086;-64
2022/03/18 07:55:37;;;;;;;36.70;11.10;;;;;;;3.47;41.40;104248.25;4960860;28;20042;-66
2022/03/18 07:58:03;;;;;;;44.03;12.43;;;;;;;3.50;40.86;104238.56;4952251;28;20254;-70
2022/03/18 08:00:28;;;;;;;37.70;12.80;;;;;;;3.56;40.50;104232.28;4963422;28;20273;-64
2022/03/18 08:02:55;;;;;;;35.33;11.40;;;;;;;3.68;39.79;104237.28;4965695;28;20262;-70
2022/03/18 08:05:21;;;;;;;28.60;8.67;;;;;;;3.75;40.05;104233.59;4954314;28;20134;-65
2022/03/18 08:07:47;;;;;;;28.33;7.60;;;;;;;3.88;39.88;104245.63;4960999;28;20290;-63
2022/03/18 08:10:15;;;;;;;15.13;5.80;;;;;;;3.95;38.52;104235.78;4963638;28;20269;-66
2022/03/18 08:12:41;;;;;;;17.07;5.73;;;;;;;3.94;37.87;104223.50;4960625;28;20259;-62
2022/03/18 08:15:10;;;;;;;26.03;10.57;;;;;;;3.91;37.52;104216.53;4962892;28;20294;-64
2022/03/18 08:17:40;;;;;;;21.17;6.10;;;;;;;4.08;37.92;104229.34;4941325;28;20322;-68
2022/03/18 08:20:12;;;;;;;16.87;4.53;;;;;;;4.18;37.83;104235.28;4953035;28;20030;-69
2022/03/18 08:22:38;;;;;;;16.60;5.70;;;;;;;4.17;37.98;104238.81;4957019;28;20266;-70
2022/03/18 08:25:05;;;;;;;46.77;7.97;;;;;;;4.23;36.60;104241.31;4965254;28;20262;-70
2022/03/18 08:27:32;;;;;;;17.20;5.37;;;;;;;4.20;36.99;104215.00;4966654;28;20280;-72
2022/03/18 08:30:01;;;;;;;37.00;7.43;;;;;;;4.38;37.92;104233.03;4975805;28;20686;-65
2022/03/18 08:32:27;;;;;;;21.20;7.10;;;;;;;4.44;36.47;104232.00;4969245;28;20274;-68
2022/03/18 08:34:54;;;;;;;21.80;5.67;;;;;;;4.33;36.37;104206.72;4966058;28;20377;-66
2022/03/18 08:40:11;;;;;;;25.88;5.55;;;;;;;4.60;35.75;104223.63;4965309;28;20283;-68
2022/03/18 08:42:37;;;;;;;14.33;5.80;;;;;;;4.35;36.47;104169.78;4970993;28;20068;-71
2022/03/18 08:45:04;;;;;;;13.90;5.03;;;;;;;4.70;35.62;104226.06;4965494;28;20266;-73
2022/03/18 08:47:30;;;;;;;15.57;5.73;;;;;;;4.74;36.06;104225.06;4970454;28;20634;-73
2022/03/18 08:49:57;;;;;;;23.20;5.40;;;;;;;4.79;36.28;104225.81;4965153;28;20334;-72
2022/03/18 08:52:22;;;;;;;11.60;4.60;;;;;;;4.83;34.99;104230.09;4957535;28;20074;-66
2022/03/18 08:54:48;;;;;;;18.50;4.33;;;;;;;4.74;35.28;104206.59;4972269;28;20305;-67
2022/03/18 08:57:13;;;;;;;13.17;3.90;;;;;;;4.39;35.30;104147.69;4966225;28;20465;-68
2022/03/18 08:59:39;;;;;;;16.00;3.77;;;;;;;4.89;35.11;104227.28;4967593;28;20031;-68
2022/03/18 09:02:05;;;;;;;19.80;6.10;;;;;;;4.82;34.75;104202.81;4955582;28;20027;-68
2022/03/18 09:04:30;;;;;;;11.07;4.63;;;;;;;4.87;35.43;104197.41;4957045;28;20034;-67
2022/03/18 09:06:57;;;;;;;20.43;7.10;;;;;;;5.02;34.91;104204.94;4964322;28;20289;-65
2022/03/18 09:09:23;;;;;;;20.80;5.57;;;;;;;5.17;34.79;104216.84;4964484;28;20014;-65
2022/03/18 09:11:48;;;;;;;13.93;7.60;;;;;;;5.27;35.85;104213.03;4955723;28;20274;-69
2022/03/18 09:14:14;;;;;;;15.63;4.93;;;;;;;5.25;35.68;104199.00;4957895;28;20486;-66
2022/03/18 09:16:40;;;;;;;15.10;5.97;;;;;;;5.35;35.26;104200.47;4967437;28;20046;-65
2022/03/18 09:19:06;;;;;;;21.00;5.47;;;;;;;5.20;33.98;104159.50;4954203;29;20030;-65
2022/03/18 09:21:32;;;;;;;13.97;7.60;;;;;;;5.46;34.47;104198.34;4953614;29;20438;-62
2022/03/18 09:23:58;;;;;;;9.80;4.47;;;;;;;5.54;33.65;104209.59;4955975;28;20283;-63
2022/03/18 09:26:24;;;;;;;51.47;9.30;;;;;;;5.56;34.36;104207.75;4955549;28;20377;-70
2022/03/18 09:28:49;;;;;;;20.47;6.20;;;;;;;5.58;33.88;104197.13;4955543;28;20054;-69
2022/03/18 09:31:16;;;;;;;36.57;9.13;;;;;;;5.63;33.46;104200.50;4955200;28;20024;-73
2022/03/18 09:33:42;;;;;;;25.77;6.73;;;;;;;5.60;34.30;104190.88;4954678;28;20031;-66
2022/03/18 09:36:10;;;;;;;20.03;6.47;;;;;;;5.80;34.08;104211.44;4956329;28;20358;-69
2022/03/18 09:38:37;;;;;;;14.82;5.32;;;;;;;5.74;33.41;104201.03;4956332;28;20102;-67
2022/03/18 09:41:03;;;;;;;13.07;4.63;;;;;;;5.70;32.68;104190.59;4956464;28;20042;-66
2022/03/18 09:43:37;;;;;;;10.93;4.40;;;;;;;5.41;32.76;104149.19;4956648;28;20601;-71
2022/03/18 09:46:05;;;;;;;12.37;5.50;;;;;;;5.77;33.36;104197.41;4956340;28;20273;-72
2022/03/18 09:48:36;;;;;;;15.03;4.90;;;;;;;5.76;33.24;104191.25;4956098;29;20267;-67
2022/03/18 09:51:04;;;;;;;8.10;4.20;;;;;;;5.82;33.01;104206.97;4956206;28;20281;-68
2022/03/18 09:53:29;;;;;;;12.37;4.83;;;;;;;5.80;33.38;104210.59;4955781;28;20279;-71
2022/03/18 09:55:55;;;;;;;14.43;4.50;;;;;;;5.79;34.26;104207.06;4955977;28;20278;-72
2022/03/18 09:58:22;;;;;;;9.70;4.30;;;;;;;5.84;32.78;104209.56;4956319;28;20034;-63
2022/03/18 10:00:50;;;;;;;32.00;7.03;;;;;;;5.86;33.24;104200.66;4955944;28;20050;-65
2022/03/18 10:03:17;;;;;;;15.40;4.40;;;;;;;5.80;32.72;104198.22;4955971;28;20271;-61
2022/03/18 10:05:54;;;;;;;8.40;3.80;;;;;;;5.89;33.13;104202.34;4954562;29;20086;-66
2022/03/18 10:08:21;;;;;;;7.97;4.50;;;;;;;5.92;33.01;104212.00;4954783;29;20354;-68
2022/03/18 10:10:48;;;;;;;8.73;3.77;;;;;;;5.85;32.60;104198.06;4955515;28;20281;-65
2022/03/18 10:13:15;;;;;;;19.30;5.60;;;;;;;5.80;32.61;104192.06;4955942;28;20259;-72
2022/03/18 10:15:41;;;;;;;17.07;5.30;;;;;;;5.76;33.30;104185.13;4956285;28;20294;-74
2022/03/18 10:18:11;;;;;;;9.30;3.87;;;;;;;5.76;33.30;104185.97;4967833;28;20251;-75
2022/03/18 10:20:46;;;;;;;7.47;3.80;;;;;;;5.79;33.68;104193.84;4961154;28;20355;-73
2022/03/18 10:23:15;;;;;;;9.90;3.40;;;;;;;5.74;33.26;104187.81;4966588;28;20251;-66
2022/03/18 10:25:46;;;;;;;9.80;4.03;;;;;;;5.84;32.64;104199.00;4962614;28;20308;-65
2022/03/18 10:28:11;;;;;;;19.73;5.30;;;;;;;5.66;32.82;104163.38;4964983;28;20027;-69
2022/03/18 10:30:37;;;;;;;17.13;4.47;;;;;;;5.86;31.88;104192.72;4963541;28;20326;-70
2022/03/18 10:33:05;;;;;;;15.07;4.53;;;;;;;5.98;33.60;104190.63;4966217;28;20105;-76
2022/03/18 10:38:28;;;;;;;7.10;3.57;;;;;;;5.97;31.47;104167.75;4974151;28;20365;-69
2022/03/18 10:40:55;;;;;;;9.17;3.67;;;;;;;6.02;32.33;104168.44;4974070;28;20258;-72
2022/03/18 10:43:21;;;;;;;15.20;5.83;;;;;;;6.10;32.71;104175.25;4974119;28;20262;-70
2022/03/18 10:46:06;;;;;;;17.30;5.37;;;;;;;6.09;32.17;104164.72;4973810;28;20277;-72
2022/03/18 10:48:33;;;;;;;9.17;3.90;;;;;;;6.27;31.17;104185.25;4973985;28;20266;-70
2022/03/18 10:51:23;;;;;;;24.80;5.67;;;;;;;6.21;31.63;104169.59;4973667;28;20290;-68
2022/03/18 10:53:55;;;;;;;12.63;3.90;;;;;;;6.11;31.28;104154.94;4974501;28;20285;-79
2022/03/18 10:56:21;;;;;;;10.00;3.37;;;;;;;6.10;31.71;104174.38;4974339;28;20105;-71
2022/03/18 10:58:46;;;;;;;16.60;4.30;;;;;;;5.45;32.23;104047.72;4973807;28;20267;-73
2022/03/18 11:01:14;;;;;;;8.70;4.47;;;;;;;6.18;31.56;104154.66;4973635;28;20053;-68
2022/03/18 11:03:40;;;;;;;14.37;3.93;;;;;;;5.57;31.12;104052.63;4955635;28;20030;-74
2022/03/18 11:06:09;;;;;;;8.57;3.73;;;;;;;6.21;31.98;104173.09;4973488;28;20309;-75
2022/03/18 11:08:42;;;;;;;15.73;6.23;;;;;;;6.27;31.44;104176.44;4973289;28;20262;-76
2022/03/18 11:11:14;;;;;;;8.27;3.60;;;;;;;6.32;30.93;104174.50;4973676;28;20270;-79
2022/03/18 11:13:50;;;;;;;10.70;4.10;;;;;;;6.30;32.45;104176.34;4974098;28;20277;-75
2022/03/18 11:16:24;;;;;;;12.80;7.33;;;;;;;6.21;31.55;104143.97;4973653;28;20313;-76
2022/03/18 11:18:50;;;;;;;9.47;5.13;;;;;;;6.36;32.16;104155.84;4974163;28;20320;-74
2022/03/18 11:21:18;;;;;;;15.90;3.67;;;;;;;6.28;31.79;104136.69;4974551;28;20766;-75
2022/03/18 11:23:45;;;;;;;18.97;5.10;;;;;;;6.31;32.06;104133.94;4974568;28;20112;-75
2022/03/18 11:26:17;;;;;;;13.10;3.10;;;;;;;6.35;30.84;104132.03;4973918;28;20294;-74
2022/03/18 11:29:08;;;;;;;5.80;2.83;;;;;;;6.47;30.05;104144.88;4973082;28;20324;-78
2022/03/18 11:32:15;;;;;;;3.90;2.63;;;;;;;6.43;30.45;104144.13;4974265;28;20289;-76
2022/03/18 11:34:46;;;;;;;15.07;4.20;;;;;;;6.34;32.46;104139.13;4974021;28;20364;-66
2022/03/18 11:37:12;;;;;;;12.23;3.23;;;;;;;6.37;31.27;104130.25;4955771;28;20357;-65
2022/03/18 11:39:38;;;;;;;10.30;4.20;;;;;;;6.49;31.31;104130.66;4958817;28;20035;-68
2022/03/18 11:42:09;;;;;;;12.80;3.57;;;;;;;6.45;31.66;104118.44;4954089;29;20267;-68